createdAt,value
2019-05-10T00:00:07.636Z,0.70
2019-05-10T00:02:53.894Z,0.80
2019-05-10T00:05:40.105Z,0.97
2019-05-10T00:08:26.788Z,0.70
2019-05-10T00:11:06.309Z,0.83
2019-05-10T00:13:55.585Z,0.80
2019-05-10T00:16:25.101Z,0.70
2019-05-10T00:18:53.921Z,1.50
2019-05-10T00:21:22.391Z,0.83
2019-05-10T00:23:51.014Z,1.20
2019-05-10T00:26:19.501Z,0.80
2019-05-10T00:28:48.038Z,1.10
2019-05-10T00:31:16.563Z,2.73
2019-05-10T00:33:45.117Z,1.30
2019-05-10T00:36:13.582Z,1.40
2019-05-10T00:38:42.111Z,1.50
2019-05-10T00:41:10.595Z,1.63
2019-05-10T00:43:39.097Z,1.47
2019-05-10T00:46:07.598Z,1.80
2019-05-10T00:48:36.125Z,1.83
2019-05-10T00:51:04.740Z,1.60
2019-05-10T00:53:33.289Z,1.77
2019-05-10T00:56:01.865Z,2.57
2019-05-10T00:58:30.399Z,2.00
2019-05-10T01:00:58.951Z,2.40
2019-05-10T01:03:27.499Z,2.00
2019-05-10T01:05:56.074Z,2.07
2019-05-10T01:08:24.772Z,2.00
2019-05-10T01:10:53.262Z,2.17
2019-05-10T01:13:21.727Z,3.07
2019-05-10T01:15:50.217Z,2.87
2019-05-10T01:18:18.750Z,2.13
2019-05-10T01:20:47.230Z,2.10
2019-05-10T01:23:15.692Z,2.47
2019-05-10T01:25:44.228Z,2.67
2019-05-10T01:28:12.691Z,2.57
2019-05-10T01:30:41.575Z,2.47
2019-05-10T01:33:10.110Z,2.90
2019-05-10T01:35:38.604Z,2.70
2019-05-10T01:38:07.147Z,3.53
2019-05-10T01:40:35.752Z,3.50
2019-05-10T01:43:04.241Z,4.40
2019-05-10T01:45:32.818Z,4.33
2019-05-10T01:48:01.327Z,4.87
2019-05-10T01:50:29.810Z,4.40
2019-05-10T01:52:58.259Z,3.80
2019-05-10T01:55:26.837Z,3.67
2019-05-10T01:57:55.429Z,4.30
2019-05-10T02:00:24.003Z,4.17
2019-05-10T02:02:52.463Z,2.80
2019-05-10T02:05:20.993Z,2.77
2019-05-10T02:07:49.627Z,3.13
2019-05-10T02:10:18.235Z,3.70
2019-05-10T02:12:46.780Z,2.10
2019-05-10T02:15:15.571Z,2.07
2019-05-10T02:17:44.131Z,2.43
2019-05-10T02:20:12.723Z,2.00
2019-05-10T02:22:41.207Z,2.63
2019-05-10T02:25:09.809Z,2.30
2019-05-10T02:27:38.329Z,2.10
2019-05-10T02:30:08.082Z,2.70
2019-05-10T02:32:36.648Z,2.70
2019-05-10T02:35:06.846Z,3.70
2019-05-10T02:37:35.377Z,3.03
2019-05-10T02:40:05.730Z,4.43
2019-05-10T02:42:34.668Z,3.90
2019-05-10T02:45:04.868Z,3.63
2019-05-10T02:47:33.460Z,3.17
2019-05-10T02:50:01.929Z,3.63
2019-05-10T02:52:30.958Z,3.83
2019-05-10T02:55:00.128Z,3.40
2019-05-10T02:57:29.111Z,3.80
2019-05-10T02:59:59.217Z,3.67
2019-05-10T03:02:28.127Z,3.70
2019-05-10T03:04:58.196Z,3.63
2019-05-10T03:07:26.756Z,4.37
2019-05-10T03:09:55.284Z,4.93
2019-05-10T03:12:26.074Z,5.13
2019-05-10T03:14:57.089Z,5.20
2019-05-10T03:17:27.974Z,5.53
2019-05-10T03:19:56.859Z,5.53
2019-05-10T03:22:26.030Z,6.53
2019-05-10T03:24:54.926Z,6.07
2019-05-10T03:27:26.127Z,5.70
2019-05-10T03:29:54.744Z,6.37
2019-05-10T03:32:23.306Z,6.93
2019-05-10T03:34:51.926Z,6.73
2019-05-10T03:37:20.600Z,7.13
2019-05-10T03:39:49.155Z,6.90
2019-05-10T03:42:17.670Z,7.43
2019-05-10T03:44:46.147Z,7.13
2019-05-10T03:47:14.698Z,6.73
2019-05-10T03:49:43.232Z,6.93
2019-05-10T03:52:11.813Z,7.33
2019-05-10T03:54:40.336Z,6.90
2019-05-10T03:57:13.760Z,7.03
2019-05-10T03:59:39.128Z,7.10
2019-05-10T04:02:07.664Z,7.17
2019-05-10T04:04:36.214Z,7.43
2019-05-10T04:07:04.885Z,7.67
2019-05-10T04:09:33.366Z,7.80
2019-05-10T04:12:01.909Z,6.93
2019-05-10T04:14:30.442Z,7.87
2019-05-10T04:16:58.931Z,7.97
2019-05-10T04:19:27.449Z,7.67
2019-05-10T04:21:55.946Z,7.30
2019-05-10T04:24:24.492Z,7.83
2019-05-10T04:26:53.032Z,6.43
2019-05-10T04:29:21.519Z,7.60
2019-05-10T04:31:50.062Z,7.30
2019-05-10T04:34:18.627Z,6.80
2019-05-10T04:36:47.153Z,6.47
2019-05-10T04:39:15.712Z,6.87
2019-05-10T04:41:44.265Z,6.43
2019-05-10T04:44:12.782Z,7.67
2019-05-10T04:46:41.335Z,6.87
2019-05-10T04:49:09.885Z,6.43
2019-05-10T04:51:38.402Z,6.37
2019-05-10T04:54:06.886Z,6.07
2019-05-10T04:56:35.441Z,6.83
2019-05-10T04:59:04.042Z,9.53
2019-05-10T05:01:35.806Z,8.73
2019-05-10T05:04:04.317Z,5.63
2019-05-10T05:06:32.856Z,7.10
2019-05-10T05:09:01.349Z,7.57
2019-05-10T05:11:29.903Z,7.63
2019-05-10T05:13:58.431Z,8.67
2019-05-10T05:16:26.911Z,6.27
2019-05-10T05:18:55.516Z,6.30
2019-05-10T05:21:24.019Z,5.63
2019-05-10T05:23:52.529Z,6.33
2019-05-10T05:26:21.100Z,5.53
2019-05-10T05:28:49.710Z,6.27
2019-05-10T05:31:18.201Z,5.80
2019-05-10T05:33:46.673Z,6.23
2019-05-10T05:36:15.202Z,6.40
2019-05-10T05:38:47.061Z,5.03
2019-05-10T05:41:13.917Z,5.60
2019-05-10T05:43:46.430Z,5.30
2019-05-10T05:46:14.593Z,6.43
2019-05-10T05:48:42.875Z,6.10
2019-05-10T05:51:11.412Z,5.53
2019-05-10T05:53:42.144Z,5.70
2019-05-10T05:56:13.040Z,6.33
2019-05-10T05:58:44.647Z,5.90
2019-05-10T06:01:10.537Z,5.97
2019-05-10T06:03:39.089Z,6.57
2019-05-10T06:06:15.531Z,8.10
2019-05-10T06:08:37.861Z,6.80
2019-05-10T06:11:09.301Z,6.87
2019-05-10T06:13:38.198Z,6.97
2019-05-10T06:16:12.789Z,7.33
2019-05-10T06:18:41.736Z,6.80
2019-05-10T06:21:07.137Z,6.70
2019-05-10T06:23:36.827Z,6.57
2019-05-10T06:26:06.245Z,7.53
2019-05-10T06:28:57.480Z,7.20
2019-05-10T06:31:05.415Z,7.67
2019-05-10T06:33:33.907Z,7.10
2019-05-10T06:36:02.457Z,6.27
2019-05-10T06:38:31.005Z,6.20
2019-05-10T06:40:59.565Z,6.70
2019-05-10T06:43:28.102Z,6.77
2019-05-10T06:45:56.667Z,7.03
2019-05-10T06:48:27.504Z,6.87
2019-05-10T06:50:55.387Z,7.13
2019-05-10T06:53:23.922Z,8.47
2019-05-10T06:55:52.478Z,7.70
2019-05-10T06:58:21.018Z,7.33
2019-05-10T07:00:49.484Z,7.63
2019-05-10T07:03:17.973Z,6.97
2019-05-10T07:05:46.463Z,6.33
2019-05-10T07:08:20.200Z,7.50
2019-05-10T07:10:45.214Z,5.27
2019-05-10T07:13:13.714Z,5.63
2019-05-10T07:15:44.571Z,5.00
2019-05-10T07:18:16.717Z,5.43
2019-05-10T07:20:43.390Z,5.87
2019-05-10T07:23:12.097Z,4.90
2019-05-10T07:25:43.854Z,5.13
2019-05-10T07:28:15.664Z,4.10
2019-05-10T07:30:41.772Z,4.67
2019-05-10T07:33:10.426Z,3.77
2019-05-10T07:35:39.018Z,5.73
2019-05-10T07:38:07.507Z,2.30
2019-05-10T07:40:36.093Z,3.90
2019-05-10T07:43:04.671Z,2.43
2019-05-10T07:45:33.157Z,5.60
2019-05-10T07:48:02.382Z,2.90
2019-05-10T07:50:31.972Z,2.60
2019-05-10T07:53:00.507Z,2.30
2019-05-10T07:55:30.085Z,2.47
2019-05-10T07:58:04.401Z,3.37
2019-05-10T08:00:29.222Z,2.53
2019-05-10T08:03:08.438Z,2.87
2019-05-10T08:05:29.558Z,1.73
2019-05-10T08:07:58.848Z,2.33
2019-05-10T08:10:29.065Z,2.17
2019-05-10T08:12:59.519Z,1.50
2019-05-10T08:15:30.648Z,2.00
2019-05-10T08:17:58.653Z,2.23
2019-05-10T08:20:41.364Z,4.53
2019-05-10T08:22:57.546Z,2.83
2019-05-10T08:25:29.033Z,3.53
2019-05-10T08:27:56.257Z,4.17
2019-05-10T08:30:42.539Z,4.13
2019-05-10T08:33:12.029Z,1.03
2019-05-10T08:35:45.547Z,3.77
2019-05-10T08:38:12.900Z,1.57
2019-05-10T08:40:42.756Z,1.53
2019-05-10T08:43:16.152Z,2.57
2019-05-10T08:45:45.164Z,2.30
2019-05-10T08:48:12.782Z,1.83
2019-05-10T08:50:53.490Z,2.17
2019-05-10T08:53:16.392Z,3.33
2019-05-10T08:55:43.305Z,2.77
2019-05-10T08:58:12.508Z,2.03
2019-05-10T09:00:54.256Z,1.33
2019-05-10T09:03:18.007Z,1.90
2019-05-10T09:05:43.212Z,2.83
2019-05-10T09:08:19.583Z,5.27
2019-05-10T09:10:42.230Z,2.43
2019-05-10T09:13:12.863Z,1.50
2019-05-10T09:15:51.186Z,1.17
2019-05-10T09:18:12.778Z,2.97
2019-05-10T09:20:42.178Z,1.97
2019-05-10T09:23:15.400Z,1.30
2019-05-10T09:25:42.578Z,2.40
2019-05-10T09:28:16.540Z,1.37
2019-05-10T09:30:54.073Z,2.40
2019-05-10T09:33:14.320Z,1.67
2019-05-10T09:35:46.947Z,1.63
2019-05-10T09:38:12.616Z,2.30
2019-05-10T09:40:50.794Z,2.13
2019-05-10T09:43:12.464Z,3.20
2019-05-10T09:45:42.338Z,1.13
2019-05-10T09:48:12.058Z,1.83
2019-05-10T09:50:46.498Z,1.63
2019-05-10T09:53:13.545Z,1.17
2019-05-10T09:55:45.716Z,1.83
2019-05-10T09:58:11.509Z,1.83
2019-05-10T10:00:40.082Z,1.47
2019-05-10T10:03:08.684Z,3.23
2019-05-10T10:05:39.861Z,1.20
2019-05-10T10:08:09.280Z,1.47
2019-05-10T10:10:37.554Z,6.63
2019-05-10T10:13:11.882Z,1.77
2019-05-10T10:15:37.283Z,3.33
2019-05-10T10:18:06.193Z,2.70
2019-05-10T10:20:36.061Z,1.20
2019-05-10T10:23:07.307Z,5.10
2019-05-10T10:25:41.010Z,2.00
2019-05-10T10:28:08.337Z,2.27
2019-05-10T10:30:37.375Z,1.57
2019-05-10T10:33:11.479Z,1.17
2019-05-10T10:35:37.907Z,2.03
2019-05-10T10:38:08.011Z,2.03
2019-05-10T10:40:44.093Z,1.33
2019-05-10T10:43:07.568Z,1.83
2019-05-10T10:45:37.738Z,1.30
2019-05-10T10:48:08.570Z,3.90
2019-05-10T10:50:36.743Z,2.30
2019-05-10T10:53:07.809Z,1.13
2019-05-10T10:55:37.856Z,3.63
2019-05-10T10:58:07.398Z,3.03
2019-05-10T11:00:38.832Z,1.93
2019-05-10T11:03:07.055Z,2.27
2019-05-10T11:05:35.586Z,2.40
2019-05-10T11:08:04.125Z,1.43
2019-05-10T11:10:32.889Z,2.50
2019-05-10T11:13:07.966Z,2.60
2019-05-10T11:15:35.952Z,1.33
2019-05-10T11:18:02.163Z,1.77
2019-05-10T11:20:31.752Z,1.47
2019-05-10T11:23:00.810Z,1.43
2019-05-10T11:25:29.551Z,1.70
2019-05-10T11:28:00.945Z,3.17
2019-05-10T11:30:28.273Z,2.37
2019-05-10T11:32:56.735Z,3.00
2019-05-10T11:35:31.001Z,2.63
2019-05-10T11:37:55.389Z,1.40
2019-05-10T11:40:30.753Z,2.03
2019-05-10T11:42:54.192Z,2.10
2019-05-10T11:45:26.232Z,1.57
2019-05-10T11:47:58.772Z,1.37
2019-05-10T11:50:31.416Z,1.83
2019-05-10T11:52:53.699Z,1.20
2019-05-10T11:55:22.253Z,2.67
2019-05-10T11:58:02.959Z,2.10
2019-05-10T12:00:31.326Z,3.60
2019-05-10T12:03:06.866Z,0.97
2019-05-10T12:05:26.784Z,1.43
2019-05-10T12:07:55.606Z,1.00
2019-05-10T12:10:25.727Z,0.83
2019-05-10T12:13:08.608Z,1.63
2019-05-10T12:15:25.829Z,1.57
2019-05-10T12:17:59.574Z,1.53
2019-05-10T12:20:41.294Z,1.90
2019-05-10T12:22:57.745Z,1.47
2019-05-10T12:25:41.983Z,1.83
2019-05-10T12:27:56.474Z,1.23
2019-05-10T12:30:29.586Z,2.37
2019-05-10T12:32:57.150Z,2.50
2019-05-10T12:35:26.432Z,3.67
2019-05-10T12:37:55.811Z,2.80
2019-05-10T12:40:24.458Z,1.33
2019-05-10T12:42:52.991Z,1.13
2019-05-10T12:45:23.380Z,1.30
2019-05-10T12:47:52.074Z,1.13
2019-05-10T12:50:21.244Z,2.60
2019-05-10T12:53:02.524Z,1.80
2019-05-10T12:55:19.977Z,1.37
2019-05-10T12:57:48.684Z,3.30
2019-05-10T13:00:18.413Z,1.17
2019-05-10T13:02:51.473Z,2.60
2019-05-10T13:05:17.246Z,1.50
2019-05-10T13:07:45.785Z,1.70
2019-05-10T13:10:15.449Z,2.57
2019-05-10T13:12:47.022Z,2.17
2019-05-10T13:15:14.991Z,1.20
2019-05-10T13:17:50.661Z,3.17
2019-05-10T13:20:15.064Z,1.83
2019-05-10T13:22:43.622Z,1.67
2019-05-10T13:25:13.305Z,1.80
2019-05-10T13:27:41.795Z,2.37
2019-05-10T13:30:10.893Z,1.80
2019-05-10T13:32:39.442Z,1.57
2019-05-10T13:35:08.152Z,1.60
2019-05-10T13:37:36.700Z,1.77
2019-05-10T13:40:08.052Z,3.10
2019-05-10T13:42:43.521Z,0.83
2019-05-10T13:45:07.365Z,0.90
2019-05-10T13:47:35.908Z,2.50
2019-05-10T13:50:06.969Z,1.00
2019-05-10T13:52:41.061Z,0.83
2019-05-10T13:55:07.084Z,1.43
2019-05-10T13:57:35.619Z,1.27
2019-05-10T14:00:06.370Z,1.37
2019-05-10T14:02:35.040Z,0.50
2019-05-10T14:05:04.334Z,1.53
2019-05-10T14:07:32.964Z,1.83
2019-05-10T14:10:01.546Z,1.13
2019-05-10T14:12:30.067Z,0.80
2019-05-10T14:15:03.004Z,0.63
2019-05-10T14:17:28.882Z,0.70
2019-05-10T14:19:57.368Z,0.70
2019-05-10T14:22:25.894Z,1.70
2019-05-10T14:24:58.980Z,1.90
2019-05-10T14:27:24.663Z,1.23
2019-05-10T14:29:54.761Z,1.57
2019-05-10T14:32:23.306Z,1.27
2019-05-10T14:34:51.802Z,1.23
2019-05-10T14:37:21.601Z,1.50
2019-05-10T14:39:50.252Z,1.50
2019-05-10T14:42:23.845Z,1.60
2019-05-10T14:44:48.995Z,2.10
2019-05-10T14:47:17.557Z,1.97
2019-05-10T14:49:47.051Z,2.10
2019-05-10T14:52:16.331Z,2.23
2019-05-10T14:54:49.818Z,2.63
2019-05-10T14:57:15.049Z,2.67
2019-05-10T14:59:43.547Z,1.50
2019-05-10T15:02:16.801Z,1.80
2019-05-10T15:04:45.047Z,1.40
2019-05-10T15:07:14.249Z,1.10
2019-05-10T15:09:42.803Z,1.57
2019-05-10T15:12:16.439Z,1.73
2019-05-10T15:14:41.595Z,1.83
2019-05-10T15:17:10.080Z,1.60
2019-05-10T15:19:38.629Z,1.50
2019-05-10T15:22:07.198Z,2.13
2019-05-10T15:24:35.747Z,1.33
2019-05-10T15:27:04.395Z,2.33
2019-05-10T15:29:32.936Z,1.37
2019-05-10T15:32:01.492Z,1.50
2019-05-10T15:34:30.022Z,1.37
2019-05-10T15:37:02.472Z,1.30
2019-05-10T15:39:30.460Z,1.10
2019-05-10T15:42:00.877Z,1.30
2019-05-10T15:44:31.233Z,1.33
2019-05-10T15:46:59.770Z,1.40
2019-05-10T15:49:28.369Z,1.63
2019-05-10T15:52:16.415Z,1.33
2019-05-10T15:54:27.169Z,1.37
2019-05-10T15:56:56.016Z,1.37
2019-05-10T15:59:24.710Z,1.57
2019-05-10T16:01:53.218Z,1.30
2019-05-10T16:04:21.722Z,1.40
2019-05-10T16:06:50.274Z,1.47
2019-05-10T16:09:19.357Z,1.70
2019-05-10T16:11:47.999Z,1.60
2019-05-10T16:14:16.475Z,1.37
2019-05-10T16:16:44.944Z,1.60
2019-05-10T16:19:18.468Z,1.47
2019-05-10T16:21:46.830Z,1.57
2019-05-10T16:24:13.969Z,2.43
2019-05-10T16:26:42.495Z,1.30
2019-05-10T16:29:10.976Z,1.87
2019-05-10T16:31:39.433Z,1.27
2019-05-10T16:34:08.042Z,1.57
2019-05-10T16:36:36.520Z,1.50
2019-05-10T16:39:06.978Z,2.07
2019-05-10T16:41:35.504Z,1.90
2019-05-10T16:44:04.059Z,2.03
2019-05-10T16:46:32.596Z,2.33
2019-05-10T16:49:01.175Z,3.23
2019-05-10T16:51:29.653Z,2.17
2019-05-10T16:53:58.361Z,1.97
2019-05-10T16:56:26.894Z,1.50
2019-05-10T16:58:55.371Z,2.67
2019-05-10T17:01:27.436Z,1.57
2019-05-10T17:04:00.034Z,1.43
2019-05-10T17:06:24.298Z,1.33
2019-05-10T17:08:52.800Z,1.93
2019-05-10T17:11:21.275Z,1.37
2019-05-10T17:13:49.835Z,1.70
2019-05-10T17:16:18.944Z,2.10
2019-05-10T17:18:49.715Z,1.70
2019-05-10T17:21:17.877Z,1.53
2019-05-10T17:23:48.431Z,1.67
2019-05-10T17:26:16.608Z,1.60
2019-05-10T17:28:45.107Z,2.60
2019-05-10T17:31:13.647Z,1.47
2019-05-10T17:33:44.148Z,1.30
2019-05-10T17:36:14.430Z,1.40
2019-05-10T17:38:47.137Z,1.57
2019-05-10T17:41:12.856Z,1.30
2019-05-10T17:43:41.439Z,1.57
2019-05-10T17:46:12.668Z,1.27
2019-05-10T17:48:40.732Z,1.10
2019-05-10T17:51:10.377Z,1.37
2019-05-10T17:53:38.916Z,1.40
2019-05-10T17:56:07.404Z,1.60
2019-05-10T17:58:36.049Z,2.47
2019-05-10T18:01:04.622Z,1.50
2019-05-10T18:03:33.197Z,1.60
2019-05-10T18:06:06.192Z,1.43
2019-05-10T18:08:34.657Z,1.80
2019-05-10T18:11:04.366Z,2.20
2019-05-10T18:13:40.318Z,2.60
2019-05-10T18:16:04.649Z,2.20
2019-05-10T18:18:35.293Z,2.17
2019-05-10T18:21:05.050Z,2.37
2019-05-10T18:23:33.524Z,2.90
2019-05-10T18:26:02.016Z,3.00
2019-05-10T18:28:30.721Z,3.07
2019-05-10T18:30:59.313Z,3.77
2019-05-10T18:33:27.856Z,3.93
2019-05-10T18:35:56.449Z,3.47
2019-05-10T18:38:24.977Z,3.57
2019-05-10T18:40:54.145Z,4.10
2019-05-10T18:43:22.711Z,4.10
2019-05-10T18:45:53.957Z,3.70
2019-05-10T18:48:22.430Z,3.83
2019-05-10T18:50:50.929Z,3.97
2019-05-10T18:53:19.490Z,4.50
2019-05-10T18:55:50.938Z,4.73
2019-05-10T18:58:23.341Z,4.77
2019-05-10T19:00:49.709Z,6.17
2019-05-10T19:03:18.270Z,5.47
2019-05-10T19:05:46.917Z,4.50
2019-05-10T19:08:15.598Z,4.00
2019-05-10T19:10:44.183Z,4.10
2019-05-10T19:13:14.376Z,4.83
2019-05-10T19:15:46.121Z,4.90
2019-05-10T19:18:17.702Z,3.87
2019-05-10T19:20:48.813Z,11.57
2019-05-10T19:23:19.296Z,6.57
2019-05-10T19:25:45.530Z,4.33
2019-05-10T19:28:14.562Z,4.50
2019-05-10T19:30:43.110Z,4.70
2019-05-10T19:33:11.669Z,4.03
2019-05-10T19:35:40.151Z,6.07
2019-05-10T19:38:08.734Z,10.17
2019-05-10T19:40:37.300Z,6.17
2019-05-10T19:43:07.324Z,4.93
2019-05-10T19:45:35.881Z,4.00
2019-05-10T19:48:06.023Z,4.10
2019-05-10T19:50:34.705Z,4.80
2019-05-10T19:53:04.095Z,5.60
2019-05-10T19:55:33.475Z,5.93
2019-05-10T19:58:02.048Z,4.90
2019-05-10T20:00:30.612Z,5.67
2019-05-10T20:02:59.110Z,4.93
2019-05-10T20:05:27.659Z,4.90
2019-05-10T20:07:56.392Z,4.97
2019-05-10T20:10:24.941Z,4.97
2019-05-10T20:12:53.532Z,4.33
2019-05-10T20:15:22.171Z,4.97
2019-05-10T20:17:50.749Z,5.00
2019-05-10T20:20:19.359Z,6.13
2019-05-10T20:22:47.958Z,5.20
2019-05-10T20:25:16.570Z,6.10
2019-05-10T20:27:45.187Z,5.73
2019-05-10T20:30:14.082Z,5.33
2019-05-10T20:32:42.656Z,6.10
2019-05-10T20:35:11.205Z,12.20
2019-05-10T20:37:39.764Z,8.83
2019-05-10T20:40:08.443Z,8.27
2019-05-10T20:42:36.941Z,7.30
2019-05-10T20:45:08.210Z,7.57
2019-05-10T20:47:35.932Z,7.43
2019-05-10T20:50:05.021Z,5.70
2019-05-10T20:52:33.573Z,6.07
2019-05-10T20:55:02.250Z,9.50
2019-05-10T20:57:30.849Z,6.20
2019-05-10T20:59:59.419Z,6.47
2019-05-10T21:02:27.919Z,8.77
2019-05-10T21:04:56.431Z,7.03
2019-05-10T21:07:24.977Z,6.93
2019-05-10T21:09:53.534Z,6.20
2019-05-10T21:12:22.090Z,7.03
2019-05-10T21:14:50.663Z,7.37
2019-05-10T21:17:19.240Z,10.37
2019-05-10T21:19:47.792Z,7.80
2019-05-10T21:22:16.324Z,8.40
2019-05-10T21:24:44.820Z,8.23
2019-05-10T21:27:13.375Z,15.27
2019-05-10T21:29:41.944Z,10.53
2019-05-10T21:32:10.496Z,12.87
2019-05-10T21:34:39.048Z,9.80
2019-05-10T21:37:07.537Z,9.50
2019-05-10T21:39:36.108Z,8.13
2019-05-10T21:42:04.744Z,7.30
2019-05-10T21:44:33.218Z,8.37
2019-05-10T21:47:01.685Z,8.90
2019-05-10T21:49:30.230Z,8.60
2019-05-10T21:51:58.776Z,8.77
2019-05-10T21:54:27.253Z,8.67
2019-05-10T21:56:55.797Z,8.53
2019-05-10T21:59:24.368Z,7.77
2019-05-10T22:01:52.971Z,8.13
2019-05-10T22:04:21.466Z,7.07
2019-05-10T22:06:50.014Z,8.73
2019-05-10T22:09:18.488Z,9.03
2019-05-10T22:11:46.974Z,8.37
2019-05-10T22:14:15.532Z,9.30
2019-05-10T22:16:43.998Z,8.27
2019-05-10T22:19:12.462Z,8.17
2019-05-10T22:21:41.019Z,10.83
2019-05-10T22:24:09.583Z,8.83
2019-05-10T22:26:38.162Z,9.90
2019-05-10T22:29:06.782Z,9.07
2019-05-10T22:31:35.402Z,9.20
2019-05-10T22:34:03.865Z,8.90
2019-05-10T22:36:46.044Z,10.60
2019-05-10T22:39:18.466Z,7.83
2019-05-10T22:41:46.643Z,8.80
2019-05-10T22:44:15.169Z,8.80
2019-05-10T22:46:43.729Z,8.30
2019-05-10T22:49:12.263Z,8.87
2019-05-10T22:51:40.739Z,8.17
2019-05-10T22:54:09.207Z,9.70
2019-05-10T22:56:37.693Z,7.37
2019-05-10T22:59:06.230Z,8.43
2019-05-10T23:01:34.721Z,8.70
2019-05-10T23:04:03.272Z,7.90
2019-05-10T23:06:31.839Z,6.93
2019-05-10T23:09:00.312Z,8.20
2019-05-10T23:11:28.859Z,7.60
2019-05-10T23:13:57.394Z,8.10
2019-05-10T23:16:25.883Z,8.07
2019-05-10T23:18:54.423Z,8.20
2019-05-10T23:21:22.971Z,8.20
2019-05-10T23:23:51.510Z,8.77
2019-05-10T23:26:20.063Z,7.90
2019-05-10T23:28:48.611Z,7.53
2019-05-10T23:31:17.177Z,8.67
2019-05-10T23:33:45.724Z,7.93
2019-05-10T23:36:14.198Z,7.63
2019-05-10T23:38:42.664Z,7.83
2019-05-10T23:41:11.138Z,9.50
2019-05-10T23:43:39.611Z,7.90
2019-05-10T23:46:08.095Z,9.87
2019-05-10T23:48:36.576Z,7.00
2019-05-10T23:51:05.134Z,7.40
2019-05-10T23:53:33.681Z,6.87
2019-05-10T23:56:02.147Z,7.70
2019-05-10T23:58:30.626Z,7.63
